地図

経路データ

SID SEASON NUMBER BASIN SUBBASIN NAME ISO_TIME NATURE LAT LON WMO_WIND WMO_PRES WMO_AGENCY TRACK_TYPE DIST2LAND LANDFALL IFLAG USA_AGENCY USA_ATCF_ID USA_LAT USA_LON USA_RECORD USA_STATUS USA_WIND USA_PRES USA_SSHS USA_R34_NE USA_R34_SE USA_R34_SW USA_R34_NW USA_R50_NE USA_R50_SE USA_R50_SW USA_R50_NW USA_R64_NE USA_R64_SE USA_R64_SW USA_R64_NW USA_POCI USA_ROCI USA_RMW USA_EYE TOKYO_LAT TOKYO_LON TOKYO_GRADE TOKYO_WIND TOKYO_PRES TOKYO_R50_DIR TOKYO_R50_LONG TOKYO_R50_SHORT TOKYO_R30_DIR TOKYO_R30_LONG TOKYO_R30_SHORT TOKYO_LAND CMA_LAT CMA_LON CMA_CAT CMA_WIND CMA_PRES HKO_LAT HKO_LON HKO_CAT HKO_WIND HKO_PRES NEWDELHI_LAT NEWDELHI_LON NEWDELHI_GRADE NEWDELHI_WIND NEWDELHI_PRES NEWDELHI_CI NEWDELHI_DP NEWDELHI_POCI REUNION_LAT REUNION_LON REUNION_TYPE REUNION_WIND REUNION_PRES REUNION_TNUM REUNION_CI REUNION_RMW REUNION_R34_NE REUNION_R34_SE REUNION_R34_SW REUNION_R34_NW REUNION_R50_NE REUNION_R50_SE REUNION_R50_SW REUNION_R50_NW REUNION_R64_NE REUNION_R64_SE REUNION_R64_SW REUNION_R64_NW BOM_LAT BOM_LON BOM_TYPE BOM_WIND BOM_PRES BOM_TNUM BOM_CI BOM_RMW BOM_R34_NE BOM_R34_SE BOM_R34_SW BOM_R34_NW BOM_R50_NE BOM_R50_SE BOM_R50_SW BOM_R50_NW BOM_R64_NE BOM_R64_SE BOM_R64_SW BOM_R64_NW BOM_ROCI BOM_POCI BOM_EYE BOM_POS_METHOD BOM_PRES_METHOD NADI_LAT NADI_LON NADI_CAT NADI_WIND NADI_PRES WELLINGTON_LAT WELLINGTON_LON WELLINGTON_WIND WELLINGTON_PRES DS824_LAT DS824_LON DS824_STAGE DS824_WIND DS824_PRES TD9636_LAT TD9636_LON TD9636_STAGE TD9636_WIND TD9636_PRES TD9635_LAT TD9635_LON TD9635_WIND TD9635_PRES TD9635_ROCI NEUMANN_LAT NEUMANN_LON NEUMANN_CLASS NEUMANN_WIND NEUMANN_PRES MLC_LAT MLC_LON MLC_CLASS MLC_WIND MLC_PRES USA_GUST BOM_GUST BOM_GUST_PER REUNION_GUST REUNION_GUST_PER USA_SEAHGT USA_SEARAD_NE USA_SEARAD_SE USA_SEARAD_SW USA_SEARAD_NW STORM_SPEED STORM_DIR
1972341S06166 1973 135 SP MM DIANA 1972-12-06 00:00:00 TS -6.00000 165.900 main 614 569 O________OO___ jtwc_sh SH041973 -6.00000 165.900 -1 -6.00000 165.900 TC 35 -6.00000 165.900 2 9 230
1972341S06166 1973 135 SP MM DIANA 1972-12-06 03:00:00 TS -6.30063 165.546 main 559 514 P________PP___ SH041973 -6.30007 165.533 -1 -6.30007 165.533 TC 35 -6.30176 165.574 2 9 228
1972341S06166 1973 135 SP MM DIANA 1972-12-06 06:00:00 TS -6.60091 165.219 main 514 480 O________OP___ jtwc_sh SH041973 -6.60000 165.200 -1 -6.60000 165.200 TC 35 -6.60273 165.258 2 9 225
1972341S06166 1973 135 SP MM DIANA 1972-12-06 09:00:00 TS -6.90076 164.939 main 470 436 P________PP___ SH041973 -6.89997 164.927 -1 -6.89997 164.927 TC 35 -6.90233 164.963 2 8 221
1972341S06166 1973 135 SP MM DIANA 1972-12-06 12:00:00 TS -7.20000 164.700 main 436 400 O________OO___ jtwc_sh SH041973 -7.20000 164.700 -1 -7.20000 164.700 TC 35 -7.20000 164.700 2 8 218
1972341S06166 1973 135 SP MM DIANA 1972-12-06 15:00:00 TS -7.49861 164.473 main 400 365 P________PP___ SH041973 -7.50000 164.470 -1 -7.50000 164.470 TC 35 -7.49584 164.480 2 7 213
1972341S06166 1973 135 SP MM DIANA 1972-12-06 18:00:00 TS -7.79746 164.305 main 365 342 O________OP___ jtwc_sh SH041973 -7.80000 164.300 -1 -7.80000 164.300 TC 35 -7.79237 164.315 2 7 204
1972341S06166 1973 135 SP MM DIANA 1972-12-06 21:00:00 TS -8.09256 164.209 main 342 330 P________PP___ SH041973 -8.09248 164.205 -1 -8.09248 164.205 TC 35 -8.09272 164.218 2 6 190
1972341S06166 1973 135 SP MM DIANA 1972-12-07 00:00:00 TS -8.40000 164.200 main 330 305 O________OO___ jtwc_sh SH041973 -8.40000 164.200 -1 -8.40000 164.200 TC 35 -8.40000 164.200 2 7 175
1972341S06166 1973 135 SP MM DIANA 1972-12-07 03:00:00 TS -8.75008 164.260 main 305 290 P________PP___ SH041973 -8.74999 164.262 -1 -8.74999 164.262 TC 35 -8.75026 164.254 2 7 164
1972341S06166 1973 135 SP MM DIANA 1972-12-07 06:00:00 TS -9.10081 164.396 main 291 281 O________OP___ jtwc_sh SH041973 -9.10000 164.400 -1 -9.10000 164.400 TC 35 -9.10243 164.387 2 8 155
1972341S06166 1973 135 SP MM DIANA 1972-12-07 09:00:00 TS -9.42946 164.577 main 291 285 P________PP___ SH041973 -9.42999 164.577 -1 -9.42999 164.577 TC 35 -9.42839 164.576 2 7 146
1972341S06166 1973 135 SP MM DIANA 1972-12-07 12:00:00 TS -9.70000 164.800 main 295 295 O________OO___ jtwc_sh SH041973 -9.70000 164.800 -1 -9.70000 164.800 TC 35 -9.70000 164.800 2 6 134
1972341S06166 1973 135 SP MM DIANA 1972-12-07 15:00:00 TS -9.87816 165.042 main 308 308 P________PP___ SH041973 -9.87999 165.043 -1 -9.87999 165.043 TC 35 -9.87449 165.042 2 6 121
1972341S06166 1973 135 SP MM DIANA 1972-12-07 18:00:00 TS -9.99839 165.303 main 337 337 O________OP___ jtwc_sh SH041973 -10.0000 165.300 -1 -10.0000 165.300 TC 35 -9.99516 165.308 2 6 113
1972341S06166 1973 135 SP MM DIANA 1972-12-07 21:00:00 TS -10.0978 165.567 main 367 367 P________PP___ SH041973 -10.1000 165.565 -1 -10.1000 165.565 TC 35 -10.0932 165.570 2 8 72
1972341S06166 1973 135 SP MM DIANA 1972-12-08 00:00:00 TS -9.74286 166.114 30 997 wellington main 430 430 O_______OOO_O_ jtwc_sh SH041973 -10.2000 165.800 -1 -7.00000 168.000 30 997 -10.2000 165.800 TC 35 -10.2000 165.800 2 -7.00000 168.000 TC 15 10 65
1972341S06166 1973 135 SP MM DIANA 1972-12-08 03:00:00 TS -9.68354 166.457 main 473 473 P_______PPP_P_ SH041973 -10.3350 165.973 -1 -7.70477 167.911 32 995 -10.3350 165.973 TC 35 -10.3605 165.977 2 -7.70253 167.900 TC 15 6 97
1972341S06166 1973 135 SP MM DIANA 1972-12-08 06:00:00 TS -9.80737 166.673 main 492 490 O_______POP_O_ jtwc_sh SH041973 -10.5000 166.100 -1 -8.39767 167.818 35 993 -10.5000 166.100 TC 35 -10.5349 166.118 2 -8.40000 167.800 TC 15 5 136
1972341S06166 1973 135 SP MM DIANA 1972-12-08 09:00:00 TS -10.0527 166.814 main 497 482 P_______PPP_P_ SH041973 -10.7000 166.215 -1 -9.06671 167.715 37 991 -10.7000 166.215 TC 35 -10.7168 166.224 2 -9.07998 167.700 TC 17 6 167
1972341S06166 1973 135 SP MM DIANA 1972-12-08 12:00:00 TS -10.4200 166.820 40 990 wellington main 482 448 O_______OOO_O_ jtwc_sh SH041973 -10.9000 166.300 -1 -9.70000 167.600 40 990 -10.9000 166.300 TC 35 -10.9000 166.300 2 -9.70000 167.600 TC 20 7 0
1972341S06166 1973 135 SP MM DIANA 1972-12-08 15:00:00 TS -10.7380 166.817 main 448 414 P_______PPP_P_ SH041973 -11.0500 166.365 -1 -10.2852 167.469 40 990 -11.0500 166.365 TC 35 -11.0750 166.370 2 -10.2300 167.515 TC 20 6 184
1972341S06166 1973 135 SP MM DIANA 1972-12-08 18:00:00 TS -11.0315 166.787 main 414 380 O_______POP_O_ jtwc_sh SH041973 -11.2000 166.400 -1 -10.8073 167.323 40 990 -11.2000 166.400 TC 35 -11.2500 166.410 2 -10.7000 167.400 TC 20 6 188
1972341S06166 1973 135 SP MM DIANA 1972-12-08 21:00:00 TS -11.3357 166.725 main 380 347 P_______PPP_P_ SH041973 -11.4000 166.415 -1 -11.2508 167.165 40 990 -11.4000 166.415 TC 35 -11.4250 166.420 2 -11.2025 167.208 TC 20 6 194
1972341S06166 1973 135 SP MM DIANA 1972-12-09 00:00:00 TS -11.6000 166.640 40 990 wellington main 347 324 O_______OOO_O_ jtwc_sh SH041973 -11.6000 166.400 -1 -11.6000 167.000 40 990 -11.6000 166.400 TC 35 -11.6000 166.400 2 -11.6000 167.000 TC 20 5 200
1972341S06166 1973 135 SP MM DIANA 1972-12-09 03:00:00 TS -11.7810 166.564 main 324 313 P_______PPP_P_ SH041973 -11.7500 166.365 -1 -11.8351 166.856 40 990 -11.7500 166.365 TC 35 -11.7749 166.386 2 -11.7950 166.850 TC 22 4 207
1972341S06166 1973 135 SP MM DIANA 1972-12-09 06:00:00 TS -11.9264 166.468 main 313 291 O_______POP_O_ jtwc_sh SH041973 -11.9000 166.300 -1 -11.9822 166.702 40 990 -11.9000 166.300 TC 35 -11.9498 166.340 2 -11.9000 166.700 TC 25 4 214
1972341S06166 1973 135 SP MM DIANA 1972-12-09 09:00:00 TS -12.0911 166.352 main 291 272 P_______PPP_P_ SH041973 -12.1000 166.230 -1 -12.0882 166.522 40 990 -12.1000 166.230 TC 35 -12.1248 166.249 2 -12.0424 166.530 TC 27 4 220
1972341S06166 1973 135 SP MM DIANA 1972-12-09 12:00:00 TS -12.2600 166.180 40 990 wellington main 272 265 O_______OOO_O_ jtwc_sh SH041973 -12.3000 166.100 -1 -12.2000 166.300 40 990 -12.3000 166.100 TC 35 -12.3000 166.100 2 -12.2000 166.300 TC 30 5 231
1972341S06166 1973 135 SP MM DIANA 1972-12-09 15:00:00 TS -12.4348 165.920 main 268 254 P_______PPP_P_ SH041973 -12.4500 165.880 -1 -12.3899 166.002 43 987 -12.4500 165.880 TC 35 -12.4914 165.871 2 -12.3926 165.965 TC 32 7 237
1972341S06166 1973 135 SP MM DIANA 1972-12-09 18:00:00 TS -12.6146 165.611 main 258 249 O_______POP_O_ jtwc_sh SH041973 -12.6000 165.600 -1 -12.5928 165.665 47 985 -12.6000 165.600 TC 35 -12.6803 165.588 2 -12.6000 165.600 TC 35 7 238
1972341S06166 1973 135 SP MM DIANA 1972-12-09 21:00:00 TS -12.8152 165.295 main 254 249 P_______PPP_P_ SH041973 -12.8075 165.293 -1 -12.7993 165.321 51 982 -12.8075 165.293 TC 35 -12.8540 165.286 2 -12.8075 165.285 TC 35 7 237
1972341S06166 1973 135 SP MM DIANA 1972-12-10 00:00:00 TS -13.0000 165.000 55 980 wellington main 257 256 O_______OOO_O_ jtwc_sh SH041973 -13.0000 165.000 -1 -13.0000 165.000 55 980 -13.0000 165.000 TC 35 -13.0000 165.000 2 -13.0000 165.000 TC 35 6 239
1972341S06166 1973 135 SP MM DIANA 1972-12-10 03:00:00 TS -13.1321 164.761 main 264 264 P_______PPP_P_ SH041973 -13.1224 164.785 -1 -13.1780 164.734 55 980 -13.1224 164.785 TC 35 -13.0874 164.766 2 -13.1500 164.735 TC 37 5 241
1972341S06166 1973 135 SP MM DIANA 1972-12-10 06:00:00 TS -13.2399 164.550 main 272 272 O_______POP_O_ jtwc_sh SH041973 -13.2000 164.600 -1 -13.3498 164.497 55 980 -13.2000 164.600 TC 35 -13.1499 164.555 2 -13.3000 164.500 TC 40 5 243
1972341S06166 1973 135 SP MM DIANA 1972-12-10 09:00:00 TS -13.3423 164.345 main 290 284 P_______PPP_P_ SH041973 -13.2425 164.392 -1 -13.5218 164.287 55 980 -13.2425 164.392 TC 35 -13.2124 164.366 2 -13.4925 164.285 TC 42 4 240
1972341S06166 1973 135 SP MM DIANA 1972-12-10 12:00:00 TS -13.4600 164.160 55 980 wellington main 287 287 O_______OOO_O_ jtwc_sh SH041973 -13.3000 164.200 -1 -13.7000 164.100 55 980 -13.3000 164.200 TC 35 -13.3000 164.200 2 -13.7000 164.100 TC 45 4 231
1972341S06166 1973 135 SP MM DIANA 1972-12-10 15:00:00 TS -13.6204 163.995 main 301 296 P_______PPP_P_ SH041973 -13.4275 164.035 -1 -13.8927 163.916 55 980 -13.4275 164.035 TC 35 -13.4543 164.045 2 -13.9000 163.942 TC 47 5 221
1972341S06166 1973 135 SP MM DIANA 1972-12-10 18:00:00 TS -13.8055 163.854 main 301 301 O_______POP_O_ jtwc_sh SH041973 -13.6000 163.900 -1 -14.0924 163.755 55 980 -13.6000 163.900 TC 35 -13.6349 163.913 2 -14.1000 163.800 TC 50 5 214
1972341S06166 1973 135 SP MM DIANA 1972-12-10 21:00:00 TS -14.0068 163.728 main 314 311 P_______PPP_P_ SH041973 -13.8075 163.792 -1 -14.2959 163.616 55 980 -13.8075 163.792 TC 35 -13.8231 163.798 2 -14.3000 163.643 TC 52 5 210
1972341S06166 1973 135 SP MM DIANA 1972-12-11 00:00:00 TS -14.2000 163.620 55 980 wellington main 319 317 O_______OOO_O_ jtwc_sh SH041973 -14.0000 163.700 -1 -14.5000 163.500 55 980 -14.0000 163.700 TC 35 -14.0000 163.700 2 -14.5000 163.500 TC 55 4 212
1972341S06166 1973 135 SP MM DIANA 1972-12-11 03:00:00 TS -14.3484 163.512 main 327 326 P_______PPP_P_ SH041973 -14.1075 163.592 -1 -14.7000 163.391 55 980 -14.1075 163.592 TC 35 -14.1272 163.598 2 -14.7000 163.385 TC 57 3 213
1972341S06166 1973 135 SP MM DIANA 1972-12-11 06:00:00 TS -14.4885 163.423 main 335 334 O_______POP_O_ jtwc_sh SH041973 -14.2000 163.500 -1 -14.9000 163.305 55 980 -14.2000 163.500 TC 35 -14.2425 163.512 2 -14.9000 163.300 TC 60 3 207
1972341S06166 1973 135 SP MM DIANA 1972-12-11 09:00:00 TS -14.6463 163.358 main 334 333 P_______PPP_P_ SH041973 -14.3350 163.435 -1 -15.1000 163.241 55 980 -14.3350 163.435 TC 35 -14.3616 163.445 2 -15.1000 163.235 TC 60 3 196
1972341S06166 1973 135 SP MM DIANA 1972-12-11 12:00:00 TS -14.8200 163.320 55 980 wellington main 344 344 O_______OOO_O_ jtwc_sh SH041973 -14.5000 163.400 -1 -15.3000 163.200 55 980 -14.5000 163.400 TC 35 -14.5000 163.400 2 -15.3000 163.200 TC 60 4 189
1972341S06166 1973 135 SP MM DIANA 1972-12-11 15:00:00 TS -15.0151 163.306 main 344 344 P_______PPP_P_ SH041973 -14.6925 163.392 -1 -15.5162 163.178 57 977 -14.6925 163.392 TC 35 -14.6744 163.374 2 -15.5000 163.192 TC 62 4 0
1972341S06166 1973 135 SP MM DIANA 1972-12-11 18:00:00 TS -15.2200 163.309 main 346 346 O_______POP_O_ jtwc_sh SH041973 -14.9000 163.400 -1 -15.7300 163.177 60 975 -14.9000 163.400 TC 35 -14.8700 163.370 2 -15.7000 163.200 TC 65 4 0
1972341S06166 1973 135 SP MM DIANA 1972-12-11 21:00:00 TS -15.4249 163.314 main 350 350 P_______PPP_P_ SH041973 -15.1000 163.400 -1 -15.9287 163.188 62 972 -15.1000 163.400 TC 35 -15.0806 163.381 2 -15.9150 163.200 TC 67 4 0
1972341S06166 1973 135 SP MM DIANA 1972-12-12 00:00:00 TS -15.6200 163.320 65 970 wellington main 354 354 O_______OOO_O_ jtwc_sh SH041973 -15.3000 163.400 -1 -16.1000 163.200 65 970 -15.3000 163.400 TC 35 -15.3000 163.400 2 -16.1000 163.200 TC 70 4 179
1972341S06166 1973 135 SP MM DIANA 1972-12-12 03:00:00 TS -15.7917 163.317 main 356 356 P_______PPP_P_ SH041973 -15.4925 163.393 -1 -16.2287 163.200 66 968 -15.4925 163.393 TC 35 -15.5300 163.402 2 -16.2150 163.200 TC 75 3 0
1972341S06166 1973 135 SP MM DIANA 1972-12-12 06:00:00 TS -15.9590 163.323 main 359 359 O_______POP_O_ jtwc_sh SH041973 -15.7000 163.400 -1 -16.3300 163.200 67 967 -15.7000 163.400 TC 35 -15.7650 163.413 2 -16.3000 163.200 TC 80 4 0
1972341S06166 1973 135 SP MM DIANA 1972-12-12 09:00:00 TS -16.1417 163.342 main 361 354 P_______PPP_P_ SH041973 -15.9500 163.435 -1 -16.4162 163.200 68 966 -15.9500 163.435 TC 35 -15.9925 163.442 2 -16.4000 163.200 TC 80 4 172
1972341S06166 1973 135 SP MM DIANA 1972-12-12 12:00:00 TS -16.3200 163.380 70 965 wellington main 356 356 O_______OOO_O_ jtwc_sh SH041973 -16.2000 163.500 -1 -16.5000 163.200 70 965 -16.2000 163.500 TC 35 -16.2000 163.500 2 -16.5000 163.200 TC 80 4 166
1972341S06166 1973 135 SP MM DIANA 1972-12-12 15:00:00 TS -16.4955 163.433 main 363 353 P_______PPP_P_ SH041973 -16.4225 163.585 -1 -16.6162 163.188 70 965 -16.4225 163.585 TC 35 -16.4163 163.608 2 -16.6000 163.200 TC 82 4 160
1972341S06166 1973 135 SP MM DIANA 1972-12-12 18:00:00 TS -16.6470 163.504 main 357 352 O_______POP_O_ jtwc_sh SH041973 -16.6000 163.700 -1 -16.7300 163.178 70 965 -16.6000 163.700 TC 35 -16.6051 163.742 2 -16.7000 163.200 TC 85 3 151
1972341S06166 1973 135 SP MM DIANA 1972-12-12 21:00:00 TS -16.7735 163.593 main 356 347 P_______PPP_P_ SH041973 -16.7450 163.857 -1 -16.8287 163.178 70 965 -16.7450 163.857 TC 35 -16.7413 163.880 2 -16.8075 163.193 TC 82 3 139
1972341S06166 1973 135 SP MM DIANA 1972-12-13 00:00:00 TS -16.8400 163.680 70 965 wellington main 347 347 O_______OOO_O_ jtwc_sh SH041973 -16.8000 164.000 -1 -16.9000 163.200 70 965 -16.8000 164.000 TC 35 -16.8000 164.000 2 -16.9000 163.200 TC 80 2 111
1972341S06166 1973 135 SP MM DIANA 1972-12-13 03:00:00 TS -16.8285 163.743 main 347 337 P_______PPP_P_ SH041973 -16.7375 164.065 -1 -16.9491 163.266 68 966 -16.7375 164.065 TC 35 -16.7459 164.084 2 -16.9725 163.235 TC 77 1 53
1972341S06166 1973 135 SP MM DIANA 1972-12-13 06:00:00 TS -16.7570 163.799 main 337 323 O_______POP_O_ jtwc_sh SH041973 -16.6000 164.100 -1 -16.9676 163.350 67 967 -16.6000 164.100 TC 35 -16.6175 164.145 2 -17.0000 163.300 TC 75 2 35
1972341S06166 1973 135 SP MM DIANA 1972-12-13 09:00:00 TS -16.6560 163.867 main 323 313 P_______PPP_P_ SH041973 -16.4500 164.158 -1 -16.9522 163.434 66 968 -16.4500 164.158 TC 35 -16.4553 164.184 2 -16.9725 163.400 TC 72 2 29
1972341S06166 1973 135 SP MM DIANA 1972-12-13 12:00:00 TS -16.5400 163.920 65 970 wellington main 313 299 O_______OOO_O_ jtwc_sh SH041973 -16.3000 164.200 -1 -16.9000 163.500 65 970 -16.3000 164.200 TC 35 -16.3000 164.200 2 -16.9000 163.500 TC 70 2 19
1972341S06166 1973 135 SP MM DIANA 1972-12-13 15:00:00 TS -16.4348 163.954 main 299 295 P_______PPP_P_ SH041973 -16.1850 164.215 -1 -16.7946 163.558 62 972 -16.1850 164.215 TC 35 -16.1944 164.209 2 -16.8150 163.573 TC 67 2 13
1972341S06166 1973 135 SP MM DIANA 1972-12-13 18:00:00 TS -16.3325 163.957 main 295 295 O_______POP_O_ jtwc_sh SH041973 -16.1000 164.200 -1 -16.6573 163.590 60 975 -16.1000 164.200 TC 35 -16.1050 164.195 2 -16.7000 163.600 TC 65 2 352
1972341S06166 1973 135 SP MM DIANA 1972-12-13 21:00:00 TS -16.2349 163.931 main 302 302 P_______PPP_P_ SH041973 -16.0350 164.165 -1 -16.5164 163.577 57 977 -16.0350 164.165 TC 35 -16.0381 164.159 2 -16.5500 163.588 TC 62 2 331
1972341S06166 1973 135 SP MM DIANA 1972-12-14 00:00:00 TS -16.1600 163.860 55 980 wellington main 302 302 O_______OOO_O_ jtwc_sh SH041973 -16.0000 164.100 -1 -16.4000 163.500 55 980 -16.0000 164.100 TC 35 -16.0000 164.100 2 -16.4000 163.500 TC 60 2 305
1972341S06166 1973 135 SP MM DIANA 1972-12-14 03:00:00 TS -16.1044 163.740 main 320 320 P_______PPP_P_ SH041973 -15.9850 164.008 -1 -16.3140 163.327 55 980 -15.9850 164.008 TC 35 -15.9678 164.026 2 -16.2700 163.330 TC 57 3 286
1972341S06166 1973 135 SP MM DIANA 1972-12-14 06:00:00 TS -16.0856 163.585 main 330 330 O_______POP_O_ jtwc_sh SH041973 -16.0000 163.900 -1 -16.2603 163.095 55 980 -16.0000 163.900 TC 35 -15.9675 163.930 2 -16.2000 163.100 TC 55 3 269
1972341S06166 1973 135 SP MM DIANA 1972-12-14 09:00:00 TS -16.1085 163.422 main 351 351 P_______PPP_P_ SH041973 -16.0350 163.800 -1 -16.2515 162.840 55 980 -16.0350 163.800 TC 35 -16.0084 163.819 2 -16.2125 162.850 TC 52 3 253
1972341S06166 1973 135 SP MM DIANA 1972-12-14 12:00:00 TS -16.1800 163.260 55 980 wellington main 364 364 O_______OOO_O_ jtwc_sh SH041973 -16.1000 163.700 -1 -16.3000 162.600 55 980 -16.1000 163.700 TC 35 -16.1000 163.700 2 -16.3000 162.600 TC 50 3 243
1972341S06166 1973 135 SP MM DIANA 1972-12-14 15:00:00 TS -16.2579 163.113 main 387 387 P_______PPP_P_ SH041973 -16.1625 163.607 -1 -16.3403 162.396 55 980 -16.1625 163.607 TC 35 -16.1969 163.578 2 -16.4275 162.378 TC 47 4 231
1972341S06166 1973 135 SP MM DIANA 1972-12-14 18:00:00 TS -16.3995 162.974 main 401 401 O_______POP_O_ jtwc_sh SH041973 -16.3000 163.500 -1 -16.4476 162.218 55 980 -16.3000 163.500 TC 35 -16.3501 163.450 2 -16.6000 162.200 TC 45 4 217
1972341S06166 1973 135 SP MM DIANA 1972-12-14 21:00:00 TS -16.6108 162.837 main 425 397 P_______PPP_P_ SH041973 -16.5475 163.350 -1 -16.6560 162.081 55 980 -16.5475 163.350 TC 35 -16.5782 163.322 2 -16.7250 162.085 TC 42 6 204
1972341S06166 1973 135 SP MM DIANA 1972-12-15 00:00:00 TS -16.9400 162.720 55 980 wellington main 397 350 O_______OOO_O_ jtwc_sh SH041973 -16.9000 163.200 -1 -17.0000 162.000 55 980 -16.9000 163.200 TC 35 -16.9000 163.200 2 -17.0000 162.000 TC 40 8 195
1972341S06166 1973 135 SP MM DIANA 1972-12-15 03:00:00 TS -17.4132 162.612 main 350 298 P_______PPP_P_ SH041973 -17.3050 163.092 -1 -17.5579 161.948 51 982 -17.3050 163.092 TC 35 -17.3154 163.069 2 -17.5825 161.856 TC 37 11 189
1972341S06166 1973 135 SP MM DIANA 1972-12-15 06:00:00 TS -17.9925 162.541 main 298 245 O_______POP_O_ jtwc_sh SH041973 -17.8000 163.000 -1 -18.2396 161.958 47 985 -17.8000 163.000 TC 35 -17.8227 162.948 2 -18.3000 161.800 TC 35 12 184
1972341S06166 1973 135 SP MM DIANA 1972-12-15 09:00:00 TS -18.6175 162.520 main 245 191 P_______PPP_P_ SH041973 -18.3775 162.885 -1 -18.9516 162.039 43 987 -18.3775 162.885 TC 35 -18.3936 162.854 2 -18.9875 161.940 TC 32 13 0
1972341S06166 1973 135 SP MM DIANA 1972-12-15 12:00:00 TS -19.2400 162.560 40 990 wellington main 191 160 O_______OOO_O_ jtwc_sh SH041973 -19.0000 162.800 -1 -19.6000 162.200 40 990 -19.0000 162.800 TC 35 -19.0000 162.800 2 -19.6000 162.200 TC 30 12 174
1972341S06166 1973 135 SP MM DIANA 1972-12-15 15:00:00 TS -19.7696 162.652 main 146 125 P_______PPP_P_ SH041973 -19.5925 162.770 -1 -20.0260 162.458 40 990 -19.5925 162.770 TC 35 -19.5921 162.783 2 -20.0450 162.478 TC 30 11 168
1972341S06166 1973 135 SP MM DIANA 1972-12-15 18:00:00 TS -20.2786 162.800 main 125 113 O_______POP_O_ jtwc_sh SH041973 -20.2000 162.800 -1 -20.3806 162.790 40 990 -20.2000 162.800 TC 35 -20.2124 162.810 2 -20.4000 162.800 TC 30 11 163
1972341S06166 1973 135 SP MM DIANA 1972-12-15 21:00:00 TS -20.7967 162.985 main 118 118 P_______PPP_P_ SH041973 -20.8425 162.870 -1 -20.7198 163.152 40 990 -20.8425 162.870 TC 35 -20.8515 162.883 2 -20.7275 163.150 TC 27 11 161
1972341S06166 1973 135 SP MM DIANA 1972-12-16 00:00:00 TS -21.3400 163.200 40 990 wellington main 136 136 O_______OOO_O_ jtwc_sh SH041973 -21.5000 163.000 -1 -21.1000 163.500 40 990 -21.5000 163.000 TC 35 -21.5000 163.000 2 -21.1000 163.500 TC 25 12 160
1972341S06166 1973 135 SP MM DIANA 1972-12-16 03:00:00 TS -21.9155 163.431 main 160 159 P_______PPP_P_ SH041973 -22.1500 163.185 -1 -21.5470 163.804 40 990 -22.1500 163.185 TC 35 -22.1105 163.157 2 -21.6200 163.822 TC 25 13 160
1972341S06166 1973 135 SP MM DIANA 1972-12-16 06:00:00 TS -22.5166 163.667 main 174 174 O_______POP_O_ jtwc_sh SH041973 -22.8000 163.400 -1 -22.0503 164.082 40 990 -22.8000 163.400 TC 35 -22.7328 163.355 2 -22.2000 164.100 TC 25 13 161
1972341S06166 1973 135 SP MM DIANA 1972-12-16 09:00:00 TS -23.1154 163.885 main 216 216 P_______PPP_P_ SH041973 -23.4275 163.600 -1 -22.6284 164.319 40 990 -23.4275 163.600 TC 35 -23.3887 163.576 2 -22.7050 164.330 TC 22 13 163
1972341S06166 1973 135 SP MM DIANA 1972-12-16 12:00:00 TS -23.7800 164.080 40 990 wellington main 274 274 O_______OOO_O_ jtwc_sh SH041973 -24.1000 163.800 -1 -23.3000 164.500 40 990 -24.1000 163.800 TC 35 -24.1000 163.800 2 -23.3000 164.500 TC 20 15 168
1972341S06166 1973 135 SP MM DIANA 1972-12-16 15:00:00 TS -24.5689 164.232 main 340 340 P_______PPP_P_ SH041973 -24.8625 164.000 -1 -24.1054 164.555 37 991 -24.8625 164.000 TC 35 -24.9165 163.973 2 -24.0975 164.630 TC 20 17 171
1972341S06166 1973 135 SP MM DIANA 1972-12-16 18:00:00 TS -25.4362 164.362 main 401 401 O_______POP_O_ jtwc_sh SH041973 -25.7000 164.200 -1 -24.9967 164.561 35 993 -25.7000 164.200 TC 35 -25.7844 164.150 2 -25.0000 164.700 TC 20 18 173
1972341S06166 1973 135 SP MM DIANA 1972-12-16 21:00:00 TS -26.3394 164.482 main 486 486 P_______PPP_P_ SH041973 -26.6075 164.400 -1 -25.9147 164.587 32 995 -26.6075 164.400 TC 35 -26.6602 164.352 2 -25.9074 164.671 TC 20 18 172
1972341S06166 1973 135 SP MM DIANA 1972-12-17 00:00:00 TS -27.2200 164.640 30 997 wellington main 576 576 O_______OOO_O_ jtwc_sh SH041973 -27.5000 164.600 -1 -26.8000 164.700 30 997 -27.5000 164.600 TC 35 -27.5000 164.600 2 -26.8000 164.700 TC 20 17 170
1972341S06166 1973 135 SP MM DIANA 1972-12-17 03:00:00 TS -28.0169 164.821 main 654 654 P_______PPP_P_ SH041973 -28.2871 164.749 -1 -27.5881 164.858 30 997 -28.2871 164.749 TC 35 -28.2850 164.826 2 -27.6373 164.925 TC 20 16 165
1972341S06166 1973 135 SP MM DIANA 1972-12-17 06:00:00 TS -28.7510 165.110 main 732 732 O_______POP_O_ jtwc_sh SH041973 -29.0000 165.000 -1 -28.3321 165.133 30 997 -29.0000 165.000 TC 35 -29.0226 165.115 2 -28.4000 165.300 TC 20 16 156
1972341S06166 1973 135 SP MM DIANA 1972-12-17 09:00:00 TS -29.4328 165.528 main 791 789 P_______PPP_P_ SH041973 -29.6867 165.431 -1 -29.0355 165.591 30 997 -29.6867 165.431 TC 35 -29.6992 165.521 2 -29.0559 165.668 TC 17 16 145
1972341S06166 1973 135 SP MM DIANA 1972-12-17 12:00:00 TS -30.0600 166.180 30 997 wellington main 775 673 O_______OOO_O_ jtwc_sh SH041973 -30.3000 166.100 -1 -29.7000 166.300 30 997 -30.3000 166.100 TC 35 -30.3000 166.100 2 -29.7000 166.300 TC 15 19 132
1972341S06166 1973 135 SP MM DIANA 1972-12-17 15:00:00 TS -30.6697 167.131 main 666 551 P_______PPP_P_ SH041973 -30.8455 167.032 -1 -30.3260 167.305 30 997 -30.8455 167.032 TC 35 -30.8435 166.922 2 -30.4878 167.363 TC 15 21 123
1972341S06166 1973 135 SP MM DIANA 1972-12-17 18:00:00 TS -31.2201 168.236 main 551 445 O_______POP_O_ jtwc_sh SH041973 -31.3000 168.100 -1 -30.9154 168.557 30 997 -31.3000 168.100 TC 35 -31.3039 167.917 2 -31.2000 168.700 TC 15 21 118
1972341S06166 1973 135 SP MM DIANA 1972-12-17 21:00:00 TS -31.6587 169.311 main 437 356 P_______PPP_P_ SH041973 -31.6867 169.101 -1 -31.4716 169.981 30 997 -31.6867 169.101 TC 35 -31.6868 169.004 2 -31.6773 170.095 TC 15 19 114
1972341S06166 1973 135 SP MM DIANA 1972-12-18 00:00:00 TS -32.0000 170.300 30 997 wellington main 351 281 O_______OOO_O_ jtwc_sh SH041973 -32.0000 170.100 -1 -32.0000 171.500 30 997 -32.0000 170.100 TC 35 -32.0000 170.100 2 -32.0000 171.500 TC 15 17 112
1972341S06166 1973 135 SP MM DIANA 1972-12-18 03:00:00 TS -32.2711 171.118 main 281 227 P________PP___ SH041973 -32.2794 171.108 -1 -32.2794 171.108 TC 35 -32.2545 171.139 2 TC 16 108
1972341S06166 1973 135 SP MM DIANA 1972-12-18 06:00:00 TS -32.4879 172.108 main 227 211 O________OP___ jtwc_sh SH041973 -32.5000 172.100 -1 -32.5000 172.100 TC 35 -32.4638 172.123 2 17 103
1972341S06166 1973 135 SP MM DIANA 1972-12-18 09:00:00 TS -32.6580 173.063 main 200 200 P________PP___ SH041973 -32.6663 173.060 -1 -32.6663 173.060 TC 35 -32.6414 173.070 2 16 101
1972341S06166 1973 135 SP MM DIANA 1972-12-18 12:00:00 TS -32.8000 174.000 main 210 O________OO___ jtwc_sh SH041973 -32.8000 174.000 -1 -32.8000 174.000 TC 35 -32.8000 174.000 2 16 100

デジタル台風データ・検索

IBTrACS Databaseについて

本データベースは、米国NOAAが公開する1842年以降の世界の熱帯低気圧のベストトラックデータアーカイブInternational Best Track Archive for Climate Stewardship (IBTrACS)を、ウェブで閲覧しやすい形式に変換したものです。

最終更新日:2021-10-25